Brown City, Michigan
Current Conditions -  °F | °C
As of 12:53 AM on Thursday 18 Dec 2014 (Local Time) from KD95 Reporting Station
Haze Haze  
Wind Chill: 18°   Ceiling: 1200
Heat Index: 28°   Visibility: 5mi
Dew Point: 25°   Wind: 10mph
Humidity: 91%   Direction: 280°W
Pressure: 30.12"   Gusts: NA
Location:  43.21°N, 82.99°W
Report Text: KD95 180553Z AUTO 28009KT 5SM BR OVC012 M02/M04 A3012 RMK AO2 T10251038
Loading
Personal Weather Stations






























Interactive Weather Map New forecast layout! Learn more

10-Day Weather Forecast

Advertisements
Track Severe Weather on mobile